AirNav   Air Wisconsin Up To $57,000 Bonus
 
 641 users online  

KDRP Delta Regional Airport
Colt, Arkansas, USA

GOING TO COLT?


FAA INFORMATION EFFECTIVE 31 DECEMBER 2020

Location

FAA Identifier: DRP
Lat/Long: 35-07-12.1880N 090-49-35.4050W
35-07.203133N 090-49.590083W
35.1200522,-90.8265014
(estimated)
Elevation: 238.8 ft. / 72.8 m (surveyed)
Variation: 01W (2015)
From city: 1 mile SW of COLT, AR
Time zone: UTC -6 (UTC -5 during Daylight Saving Time)
Zip code: 72326

Airport Operations

Airport use: Open to the public
Activation date: 04/2014
Control tower: no
ARTCC: MEMPHIS CENTER
FSS: JONESBORO FLIGHT SERVICE STATION
NOTAMs facility: JBR (NOTAM-D service available)
Attendance: UNATNDD
Wind indicator: lighted
Segmented circle: yes
Lights: ACTVT HIRL RY 18/36; REIL RYS 18 & 36 - CTAF. PAPI RYS 18 & 36 OPERS CONTINUOUSLY.
Beacon: white-green (lighted land airport)
Operates sunset to sunrise.

Airport Communications

CTAF/UNICOM: 123.0
  • APCH/DEP SVC PRVDD BY MEMPHIS ARTCC ON FREQS 135.3/335.8 (BRINKLEY RCAG).

Nearby radio navigation aids

VOR radial/distance  VOR name  Freq  Var
GQEr227/21.8GILMORE VOR/DME113.0004E
UJMr346/33.5MARVELL VOR/DME109.6001E

Airport Services

Fuel available: 100LL
FUEL AVBL SELF SERVE AFT HRS WITH CREDIT CARD
Parking: tiedowns

Runway Information

Runway 18/36

Dimensions: 5003 x 75 ft. / 1525 x 23 m
Surface: asphalt, in good condition
Weight bearing capacity: 
Single wheel: 30.0
Runway edge lights: high intensity
RUNWAY 18  RUNWAY 36
Latitude: 35-07.615412N35-06.790852N
Longitude: 090-49.584142W090-49.596037W
Elevation: 238.8 ft.228.7 ft.
Traffic pattern: leftleft
Runway heading: 182 magnetic, 181 true002 magnetic, 001 true
Markings: precision, in good conditionprecision, in good condition
Visual slope indicator: 2-light PAPI on left (3.00 degrees glide path)2-light PAPI on left (3.00 degrees glide path)
Runway end identifier lights: yesyes
Touchdown point: yes, no lightsyes, no lights

Airport Ownership and Management from official FAA records

Ownership: Publicly-owned
Owner: DELTA REGIONAL AIRPORT AUTHORITY
PO BOX 248, 8535 MAIN STREET
COLT, AR 72326
Phone 870-208-6607
Manager: SHANNON HOBBS
P. O. BOX 267
COLT, AR 72326
Phone 870-633-6083

Airport Operational Statistics

Aircraft based on the field: 16
Single engine airplanes: 16
    
Aircraft operations: avg 59/week *
65% local general aviation
32% transient general aviation
3% military
* for 12-month period ending 30 September 2020

Additional Remarks

FOR CD CTC MEMPHIS ARTCC AT 901-368-8453.

Instrument Procedures

NOTE: All procedures below are presented as PDF files. If you need a reader for these files, you should download the free Adobe Reader.

NOT FOR NAVIGATION. Please procure official charts for flight.
FAA instrument procedures published for use from 31 December 2020 at 0901Z to 28 January 2021 at 0900Z.

 
IAPs - Instrument Approach Procedures
RNAV (GPS) RWY 18   download (200KB)
RNAV (GPS) RWY 36   download (198KB)
NOTE: Special Take-Off Minimums/Departure Procedures apply   download

Other nearby airports with instrument procedures:

6M7 - Marianna/Lee County Airport-Steve Edwards Field (20 nm S)
M36 - Frank Federer Memorial Airport (22 nm SW)
M60 - Woodruff County Airport (24 nm NW)
KAWM - West Memphis Municipal Airport (29 nm E)
KHEE - Thompson-Robbins Airport (33 nm S)
 
Loc | Ops | Rwys | IFR | FBO | Links
Com | Nav | Svcs | Stats | Notes
Aerial photo
No photo
 
Airport distance calculator
Flying to Delta Regional Airport? Find the distance to fly.

From to KDRP

Sunrise and sunset
Times for 22-Jan-2021
 Local
(UTC-6)
 Zulu
(UTC)
Morning civil twilight06:4212:42
Sunrise07:1013:10
Sunset17:2023:20
Evening civil twilight17:4823:48

Current date and time
Zulu (UTC)  23-Jan-2021 05:13:07
Local (UTC-6)  22-Jan-2021 23:13:07
 
METAR
KAWM 
29nm E 
230453Z AUTO 04008KT 10SM CLR 03/M03 A3020 RMK AO2 SLP228 T00281033
KUTA 
35nm SE 
230455Z AUTO 02007KT 10SM CLR 02/M01 A3021 RMK AO2 TSNO
KM19 
35nm NW 
230456Z AUTO 04009KT 10SM CLR 00/M04 A3024 RMK AO2 SLP239 T00001039
KMEM 
42nm E 
230454Z 04010KT 10SM FEW110 04/M05 A3020 RMK AO2 SLP226 T00391050 $
KJBR 
44nm N 
230453Z AUTO 04009KT 10SM CLR 01/M06 A3025 RMK AO2 SLP244 T00111061 TSNO $
KSRC 
45nm W 
230456Z AUTO 04008KT 10SM CLR 02/M03 A3022 RMK AO2 SLP235 T00221033 FZRANO
KSGT 
48nm SW 
230456Z AUTO 06010KT 10SM CLR 04/M01 A3019 RMK AO2 SLP226 T00441011 PNO $
KNQA 
49nm E 
230450Z 04009KT 10SM CLR 03/M05 A3021
TAF
KMEM 
42nm E 
230306Z 2303/2406 04009KT P6SM SKC FM231400 05010KT P6SM BKN100 FM240200 11007KT P6SM BKN050
KJBR 
44nm N 
221737Z 2218/2318 06010G18KT P6SM SKC FM230000 04005KT P6SM SKC FM231500 08009KT P6SM SKC
NOTAMs
Click for the latest NOTAMs
NOTAMs are issued by the DoD/FAA and will open in a separate window not controlled by AirNav.

 

 
 

FBO, Fuel Providers, and Aircraft Ground Support

  
 Business Name 
 
 Contact 
 
 Services / Description 
 
Fuel Prices
 
Comments
  
Delta Regional Airport 870-208-6607
no information available

If you are affiliated with Delta Regional Airport and would like to show here your services, contact info, web link, logo, and more, click here
100LL
SS $3.03 
 Updated 11-May-2020
 
   5 read write
SS=Self service
Update Fuel Prices
 

Would you like to see your business listed on this page?

 If your business provides an interesting product or service to pilots, flight crews, aircraft, or users of the Delta Regional Airport, you should consider listing it here.  To start the listing process, click on the button below
 
Add a business
 

Other Pages about Delta Regional Airport

Update a link
 
Copyright © AirNav, LLC. All rights reserved. Privacy Policy  Contact